Georgetown, Delaware
Current Conditions -  °F | °C
As of 12:54 AM on Sunday 26 Oct 2014 (Local Time) from KGED Reporting Station
Clear Clear  
Wind Chill: 13°   Ceiling: Unl
Heat Index: 13°   Visibility: 10mi
Dew Point:   Wind: 7mph
Humidity: 72%   Direction: 240°WSW
Pressure: 29.69"   Gusts: NA
Location:  38.69°N, 75.39°W
Report Text: KGED 260454Z AUTO 24006KT 10SM CLR 13/08 A2969 RMK AO2 SLP054 T01330083 402110056 $
Loading
Personal Weather Stations






























Interactive Weather Map
Tropical Storm Tracking
New forecast layout! Learn more

10-Day Weather Forecast

Advertisements
Track Severe Weather on mobile